Time;durP1;ratioP1;P1;durP2;ratioP2;P2;SDS_P1;SDS_P2;PMS_P1;PMS_P2;Temp;Humidity;BMP_temperature;BMP_pressure;BME280_temperature;BME280_humidity;BME280_pressure;Samples;Min_cycle;Max_cycle;Signal;HPM_P1;HPM_P2
2022/10/04 07:58:24;;;;;;;42.28;6.80;;;;;;;8.97;90.16;97229.78;2099021;27;20573;-70
2022/10/04 07:59:48;;;;;;;14.65;5.70;;;;;;;8.90;90.15;97235.19;2100358;28;20214;-70
2022/10/04 08:01:27;;;;;;;32.42;6.50;;;;;;;9.15;90.38;97227.53;2099639;28;20246;-72
2022/10/04 08:02:38;;;;;;;19.67;6.22;;;;;;;9.28;89.48;97226.28;2090666;28;20223;-71
2022/10/04 08:04:10;;;;;;;20.98;6.22;;;;;;;9.44;87.33;97221.44;2090838;28;20208;-71
2022/10/04 08:14:32;;;;;;;21.23;6.50;;;;;;;10.98;80.32;97214.53;2095581;27;1274183;-68
2022/10/04 08:15:41;;;;;;;13.25;5.28;;;;;;;11.02;79.76;97217.88;2120646;28;20763;-70
2022/10/04 08:17:07;;;;;;;14.27;5.75;;;;;;;10.97;80.68;97210.25;2091260;28;20228;-70
2022/10/04 08:18:29;;;;;;;9.73;4.88;;;;;;;11.20;79.64;97209.38;2088530;28;20701;-70
2022/10/04 08:19:52;;;;;;;14.77;5.10;;;;;;;11.01;79.94;97208.34;2089378;28;20306;-70
2022/10/04 08:26:07;;;;;;;14.68;4.38;;;;;;;11.96;76.44;97213.41;2100635;28;20179;-70
2022/10/04 08:27:25;;;;;;;42.28;6.93;;;;;;;12.52;74.45;97209.28;2098368;28;20882;-70
2022/10/04 08:30:01;;;;;;;16.40;5.35;;;;;;;14.57;69.26;97214.50;2096555;28;20287;-72
2022/10/04 08:31:51;;;;;;;7.80;3.70;;;;;;;15.25;65.14;97210.97;2107882;28;20285;-70
2022/10/04 08:33:19;;;;;;;16.00;3.83;;;;;;;15.85;62.77;97205.97;2098609;28;20294;-70
2022/10/04 08:34:30;;;;;;;10.52;4.90;;;;;;;15.71;63.02;97201.44;2098450;28;20220;-70
2022/10/04 08:36:06;;;;;;;15.05;3.78;;;;;;;15.01;65.03;97202.63;2097194;28;20202;-70
2022/10/04 08:37:16;;;;;;;11.80;3.80;;;;;;;15.53;62.09;97209.44;2085689;28;20307;-70
2022/10/04 08:50:04;;;;;;;7.53;3.42;;;;;;;15.07;62.89;97219.84;2097662;28;20167;-72
2022/10/04 08:51:24;;;;;;;6.65;3.85;;;;;;;15.57;61.85;97218.84;2097074;28;20223;-72
2022/10/04 08:52:50;;;;;;;9.18;3.40;;;;;;;16.34;59.89;97211.03;2098552;28;20339;-72
2022/10/04 08:54:19;;;;;;;5.63;3.22;;;;;;;16.43;59.54;97210.47;2098270;28;20294;-72
2022/10/04 08:56:02;;;;;;;6.03;2.78;;;;;;;17.38;57.79;97218.81;2096149;28;20219;-72
2022/10/04 08:57:09;;;;;;;12.52;3.45;;;;;;;16.15;58.94;97220.00;2079643;28;20223;-72
2022/10/04 08:58:53;;;;;;;6.45;2.88;;;;;;;16.38;61.10;97216.94;2097774;28;20200;-72
2022/10/04 09:00:07;;;;;;;14.23;4.18;;;;;;;15.91;62.29;97216.13;2098700;28;20551;-72
2022/10/04 09:01:27;;;;;;;10.77;2.83;;;;;;;16.52;59.15;97213.47;2088765;28;20650;-71
2022/10/04 09:09:39;;;;;;;10.00;3.35;;;;;;;18.29;55.89;97225.31;2099105;28;20291;-72
2022/10/04 09:10:59;;;;;;;7.50;3.20;;;;;;;17.88;55.26;97228.88;2097606;28;20203;-72
2022/10/04 09:12:15;;;;;;;8.02;2.58;;;;;;;17.52;58.06;97223.22;2085199;28;20246;-72
2022/10/04 09:13:39;;;;;;;7.03;3.53;;;;;;;17.72;56.37;97219.28;2099338;28;20219;-72
2022/10/04 09:20:02;;;;;;;9.63;3.28;;;;;;;16.71;59.17;97227.28;2096255;28;20223;-71
2022/10/04 09:21:42;;;;;;;5.28;3.50;;;;;;;16.40;60.39;97222.97;2088711;28;20198;-69
2022/10/04 09:22:58;;;;;;;14.88;4.20;;;;;;;16.16;61.61;97223.47;2097029;28;20227;-70
2022/10/04 09:24:25;;;;;;;16.70;4.03;;;;;;;16.41;60.45;97216.78;2097437;28;20195;-69
2022/10/04 09:25:50;;;;;;;5.95;3.35;;;;;;;17.31;59.33;97225.41;2093733;28;20795;-69
2022/10/04 09:27:18;;;;;;;7.50;3.42;;;;;;;17.38;59.07;97218.81;2082681;28;20317;-69
2022/10/04 09:29:04;;;;;;;6.80;3.28;;;;;;;16.55;61.21;97215.94;2093618;28;20204;-71
2022/10/04 09:30:16;;;;;;;7.85;3.60;;;;;;;16.31;61.24;97198.84;2094754;28;20206;-71
2022/10/04 09:31:52;;;;;;;9.60;3.75;;;;;;;16.91;58.76;97191.81;2084624;28;20282;-71
2022/10/04 09:33:13;;;;;;;5.75;3.38;;;;;;;16.73;60.32;97206.91;2094274;28;20282;-71
2022/10/04 09:34:23;;;;;;;9.50;3.70;;;;;;;16.88;60.00;97215.69;2093933;28;20295;-71
2022/10/04 09:35:40;;;;;;;5.75;3.10;;;;;;;17.30;59.45;97210.50;2094213;28;20200;-71
2022/10/04 09:37:11;;;;;;;8.10;3.95;;;;;;;17.00;60.19;97208.00;2082991;28;20307;-72
2022/10/04 09:45:23;;;;;;;10.95;3.28;;;;;;;18.01;57.33;97207.81;2092678;28;20644;-71
2022/10/04 09:46:54;;;;;;;4.97;2.60;;;;;;;17.78;57.43;97173.97;2082094;28;20651;-71
2022/10/04 09:48:28;;;;;;;6.05;2.45;;;;;;;18.32;56.51;97211.91;2091865;28;20202;-71
2022/10/04 09:49:59;;;;;;;12.15;3.03;;;;;;;18.49;54.97;97210.75;2092731;28;20232;-71
2022/10/04 09:51:12;;;;;;;9.10;3.25;;;;;;;19.48;53.38;97208.38;2092171;28;20689;-72
2022/10/04 09:52:20;;;;;;;8.18;3.10;;;;;;;19.54;52.98;97205.25;2092464;28;20247;-71
2022/10/04 09:53:39;;;;;;;9.73;2.70;;;;;;;19.88;52.01;97208.13;2092238;28;20329;-71
2022/10/04 09:55:12;;;;;;;9.73;2.88;;;;;;;20.46;51.11;97205.59;2092789;28;20575;-71
2022/10/04 09:56:30;;;;;;;8.75;3.13;;;;;;;19.08;53.19;97204.97;2081635;28;20201;-69
2022/10/04 09:58:06;;;;;;;7.50;2.97;;;;;;;18.47;55.35;97209.16;2091674;28;20231;-68
2022/10/04 09:59:26;;;;;;;6.13;2.92;;;;;;;18.83;55.18;97204.94;2093624;28;20224;-69
2022/10/04 10:00:43;;;;;;;9.50;3.50;;;;;;;17.71;57.24;97212.31;2091100;28;20635;-69
2022/10/04 10:02:27;;;;;;;9.73;3.33;;;;;;;17.32;58.56;97203.34;2074464;28;20228;-69
2022/10/04 10:03:46;;;;;;;7.00;3.33;;;;;;;17.69;57.72;97208.09;2091465;28;20222;-70
2022/10/04 10:05:18;;;;;;;8.30;3.50;;;;;;;17.92;56.81;97215.34;2093349;28;20234;-69
2022/10/04 10:06:59;;;;;;;12.63;3.15;;;;;;;18.50;56.37;97209.81;2089390;28;20327;-71
2022/10/04 10:08:22;;;;;;;7.95;3.22;;;;;;;20.16;52.78;97206.09;2091288;28;20669;-71
2022/10/04 10:13:39;;;;;;;7.30;3.00;;;;;;;20.81;50.23;97214.47;2090381;28;20298;-71
2022/10/04 10:14:47;;;;;;;9.05;3.30;;;;;;;21.44;47.86;97206.03;2092754;28;20251;-71
2022/10/04 10:15:58;;;;;;;8.77;2.75;;;;;;;18.81;52.18;97212.16;2091623;28;20746;-71
2022/10/04 10:17:23;;;;;;;9.95;2.85;;;;;;;19.74;52.03;97209.13;2074804;28;20224;-71
2022/10/04 10:18:35;;;;;;;8.68;2.97;;;;;;;19.90;51.07;97200.94;2091245;28;20200;-71
2022/10/04 10:19:57;;;;;;;6.97;2.60;;;;;;;21.21;48.62;97195.44;2095535;28;20283;-71
2022/10/04 10:21:35;;;;;;;5.68;2.72;;;;;;;20.17;51.45;97203.31;2093750;28;20315;-71
2022/10/04 10:23:09;;;;;;;10.80;3.58;;;;;;;20.76;49.15;97209.56;2089195;28;20255;-70
2022/10/04 10:31:19;;;;;;;6.53;2.55;;;;;;;20.60;50.67;97209.00;2090847;28;20181;-68
2022/10/04 10:32:49;;;;;;;10.90;2.40;;;;;;;21.18;48.75;97198.34;2092069;28;20212;-67
2022/10/04 10:34:22;;;;;;;9.77;2.85;;;;;;;19.45;52.51;97205.94;2093364;28;20214;-68
2022/10/04 10:35:26;;;;;;;8.10;2.97;;;;;;;20.43;51.02;97204.97;2092940;28;20762;-68
2022/10/04 10:43:29;;;;;;;3.83;2.30;;;;;;;23.88;42.88;97206.78;2093376;28;20295;-68
2022/10/04 10:45:08;;;;;;;6.47;2.80;;;;;;;24.19;41.96;97212.03;2091898;28;20224;-66
2022/10/04 10:46:26;;;;;;;9.45;2.33;;;;;;;22.89;43.11;97204.75;2080820;28;20702;-65
2022/10/04 10:47:36;;;;;;;6.25;2.55;;;;;;;22.61;45.27;97206.28;2092358;28;20203;-66
2022/10/04 10:49:03;;;;;;;3.40;2.05;;;;;;;23.10;44.65;97203.88;2092101;28;20687;-67
2022/10/04 10:50:24;;;;;;;11.15;2.83;;;;;;;24.66;41.38;97205.13;2093663;28;20314;-65
2022/10/04 10:52:03;;;;;;;5.70;2.30;;;;;;;23.44;44.14;97201.78;2082289;28;20640;-66
2022/10/04 10:53:31;;;;;;;18.13;3.33;;;;;;;22.60;45.39;97192.13;2091479;28;20239;-66
2022/10/04 10:54:59;;;;;;;15.63;2.55;;;;;;;19.88;51.25;97197.53;2081433;28;20366;-66
2022/10/04 10:56:07;;;;;;;9.60;2.38;;;;;;;21.19;49.80;97200.00;2093751;28;20228;-65
2022/10/04 10:57:32;;;;;;;8.38;2.67;;;;;;;20.89;49.59;97198.81;2091941;28;20626;-66
2022/10/04 10:59:16;;;;;;;9.30;2.47;;;;;;;20.14;51.32;97187.66;2092542;28;20196;-68
2022/10/04 11:00:19;;;;;;;5.20;2.20;;;;;;;21.95;48.75;97202.81;2091968;28;20808;-67
2022/10/04 11:01:49;;;;;;;6.82;2.15;;;;;;;22.63;46.79;97193.69;2083042;28;20208;-65
2022/10/04 11:03:19;;;;;;;6.32;2.83;;;;;;;22.34;47.04;97197.78;2089602;28;20196;-66
2022/10/04 11:05:00;;;;;;;4.63;2.38;;;;;;;22.26;47.01;97199.41;2095524;28;20765;-66
2022/10/04 11:06:24;;;;;;;5.45;2.55;;;;;;;22.02;47.33;97196.00;2092069;28;20240;-67
2022/10/04 11:07:42;;;;;;;7.55;2.38;;;;;;;20.22;50.27;97192.38;2094721;28;21172;-67
2022/10/04 11:09:09;;;;;;;7.57;2.08;;;;;;;20.90;49.75;97194.34;2091510;28;20199;-67
2022/10/04 11:10:46;;;;;;;5.43;2.20;;;;;;;20.85;51.23;97190.25;2090384;28;20657;-67
2022/10/04 11:19:01;;;;;;;14.98;2.80;;;;;;;20.13;52.11;97178.00;2090832;28;20168;-67
2022/10/04 11:20:53;;;;;;;7.78;2.60;;;;;;;21.37;50.00;97190.59;2099407;28;20274;-66
2022/10/04 11:22:29;;;;;;;10.93;2.83;;;;;;;21.59;49.26;97183.59;2093215;28;20219;-67
2022/10/04 11:23:50;;;;;;;3.80;2.00;;;;;;;22.56;47.32;97189.84;2092438;28;20203;-67
2022/10/04 11:36:35;;;;;;;4.00;1.58;;;;;;;22.72;45.29;97176.94;2088151;28;20184;-65
2022/10/04 11:38:10;;;;;;;6.47;2.47;;;;;;;23.05;44.65;97174.16;2091031;28;20282;-65
2022/10/04 11:39:29;;;;;;;5.38;1.90;;;;;;;23.24;44.45;97176.06;2091907;28;20188;-66
2022/10/04 11:41:02;;;;;;;7.90;2.10;;;;;;;22.48;45.62;97182.53;2090920;28;20792;-66
2022/10/04 11:42:18;;;;;;;5.03;2.03;;;;;;;22.24;45.74;97170.28;2079612;28;20258;-64
2022/10/04 11:43:31;;;;;;;5.75;2.00;;;;;;;23.09;44.72;97164.91;2093577;28;20250;-70
2022/10/04 11:44:43;;;;;;;4.88;2.20;;;;;;;22.55;45.41;97164.22;2093942;28;21141;-66
2022/10/04 11:46:05;;;;;;;2.92;2.08;;;;;;;22.89;45.00;97162.16;2091714;28;20263;-68
2022/10/04 11:47:45;;;;;;;6.82;1.90;;;;;;;23.51;45.50;97161.28;2092238;28;20688;-68
2022/10/04 11:49:17;;;;;;;4.35;1.98;;;;;;;23.56;44.41;97159.88;2090847;28;20219;-75
2022/10/04 11:50:40;;;;;;;3.22;1.60;;;;;;;22.81;44.21;97152.16;2096110;28;20287;-72
2022/10/04 11:52:33;;;;;;;10.57;2.75;;;;;;;22.63;45.08;97153.78;2092018;28;20224;-69
2022/10/04 11:53:51;;;;;;;9.63;2.60;;;;;;;22.45;45.09;97151.69;2074141;28;20806;-70
2022/10/04 11:55:31;;;;;;;6.90;2.03;;;;;;;20.75;47.71;97152.13;2074412;28;20310;-71
2022/10/04 11:57:07;;;;;;;5.93;2.00;;;;;;;20.76;49.42;97147.66;2068430;28;20744;-72
2022/10/04 11:58:24;;;;;;;7.25;2.00;;;;;;;22.32;46.59;97154.53;2064878;28;20225;-72
2022/10/04 12:00:01;;;;;;;4.55;1.70;;;;;;;22.14;46.48;97146.31;2089707;28;20238;-72
2022/10/04 12:01:40;;;;;;;7.47;1.65;;;;;;;20.98;49.10;97142.34;2089870;28;20243;-73
2022/10/04 12:03:36;;;;;;;9.48;1.90;;;;;;;21.13;48.46;97145.59;2090929;28;20247;-78
2022/10/04 12:05:07;;;;;;;7.03;2.35;;;;;;;20.61;48.99;97142.56;2075608;28;20197;-72
2022/10/04 12:06:15;;;;;;;4.82;1.92;;;;;;;20.49;47.76;97147.03;2068483;28;20236;-78
2022/10/04 12:07:26;;;;;;;5.40;1.90;;;;;;;21.76;46.51;97146.81;2086406;28;20284;-73
2022/10/04 12:08:39;;;;;;;6.90;1.92;;;;;;;20.72;48.44;97141.75;2089695;28;20203;-73
2022/10/04 12:09:53;;;;;;;6.85;2.13;;;;;;;20.86;48.32;97145.97;2089597;28;20269;-76
2022/10/04 12:11:25;;;;;;;4.13;1.55;;;;;;;21.63;46.65;97145.16;2093598;28;20204;-70
2022/10/04 12:12:42;;;;;;;3.85;1.50;;;;;;;21.89;45.72;97136.88;2093514;28;20246;-74
2022/10/04 12:14:20;;;;;;;4.10;1.60;;;;;;;20.70;47.47;97141.88;2093357;28;20729;-77
2022/10/04 12:15:39;;;;;;;2.47;1.63;;;;;;;20.44;48.41;97143.84;2092857;28;20336;-78
2022/10/04 12:17:00;;;;;;;7.03;1.58;;;;;;;20.86;47.84;97144.19;2099673;28;20222;-76
2022/10/04 12:18:14;;;;;;;3.75;1.80;;;;;;;21.51;47.64;97138.19;2097490;28;20286;-76
2022/10/04 12:19:36;;;;;;;3.65;1.75;;;;;;;21.16;48.12;97134.72;2093378;28;20246;-76
2022/10/04 12:21:08;;;;;;;3.92;1.88;;;;;;;21.71;45.89;97141.03;2091742;28;20274;-74
2022/10/04 12:22:38;;;;;;;4.63;1.30;;;;;;;22.07;44.49;97129.16;2094679;28;20245;-76
2022/10/04 12:23:39;;;;;;;3.47;1.50;;;;;;;22.18;44.47;97133.56;2091737;28;20283;-75
2022/10/04 12:30:02;;;;;;;3.15;1.45;;;;;;;19.64;48.81;97129.50;2090855;28;20530;-72
2022/10/04 12:31:15;;;;;;;4.00;1.80;;;;;;;21.00;45.83;97132.47;2096006;28;20227;-73
2022/10/04 12:32:53;;;;;;;3.53;1.50;;;;;;;21.49;46.37;97135.63;2093552;28;20223;-72
2022/10/04 12:34:13;;;;;;;2.10;1.15;;;;;;;22.24;44.75;97135.72;2088814;28;20567;-73
2022/10/04 12:35:30;;;;;;;3.25;1.40;;;;;;;20.00;46.75;97138.34;2090741;28;20212;-72
2022/10/04 12:39:10;;;;;;;2.30;1.13;;;;;;;22.56;43.39;97141.97;2096855;28;20199;-73
2022/10/04 12:40:11;;;;;;;3.35;1.35;;;;;;;23.02;42.21;97137.97;2105001;28;20262;-74
2022/10/04 12:41:48;;;;;;;3.72;1.48;;;;;;;23.50;41.61;97122.28;2096318;28;20235;-72
2022/10/04 12:42:55;;;;;;;4.30;1.23;;;;;;;22.78;42.32;97140.97;2090780;28;20662;-72
2022/10/04 12:44:25;;;;;;;3.25;1.23;;;;;;;21.45;44.06;97139.50;2096774;28;20222;-73
2022/10/04 12:45:40;;;;;;;2.42;1.30;;;;;;;20.58;44.84;97129.50;2093238;28;20292;-72
2022/10/04 12:53:54;;;;;;;3.38;1.38;;;;;;;20.07;46.97;97120.16;2090568;28;20184;-67
2022/10/04 12:55:23;;;;;;;4.15;1.50;;;;;;;21.00;46.56;97120.97;2091370;28;20192;-68
2022/10/04 12:56:55;;;;;;;6.93;1.58;;;;;;;22.08;44.38;97117.56;2098186;28;20260;-68
2022/10/04 12:58:13;;;;;;;2.40;1.00;;;;;;;21.79;43.50;97115.50;2095285;28;20196;-68
2022/10/04 12:59:17;;;;;;;3.78;1.38;;;;;;;22.30;43.65;97118.41;2091876;28;20200;-68
2022/10/04 13:00:24;;;;;;;6.85;1.35;;;;;;;21.29;44.57;97091.25;2091795;28;20278;-69
2022/10/04 13:01:34;;;;;;;3.35;1.13;;;;;;;21.25;44.33;97111.91;2092826;28;20200;-69
2022/10/04 13:02:48;;;;;;;2.47;1.17;;;;;;;21.67;44.03;97098.78;2093816;28;20275;-69
2022/10/04 13:03:52;;;;;;;3.88;1.30;;;;;;;21.59;44.99;97114.50;2093676;28;20235;-70
2022/10/04 13:05:02;;;;;;;5.07;1.10;;;;;;;21.53;44.30;97117.63;2091429;28;20228;-69
2022/10/04 13:06:21;;;;;;;2.63;1.25;;;;;;;20.99;44.67;97117.50;2092452;28;20239;-70
2022/10/04 13:07:37;;;;;;;4.22;1.35;;;;;;;20.86;45.03;97111.47;2092692;28;20703;-69
2022/10/04 13:08:42;;;;;;;3.05;1.13;;;;;;;21.39;44.33;97101.97;2092918;28;20227;-68
2022/10/04 13:10:12;;;;;;;2.88;1.40;;;;;;;21.68;44.20;97111.06;2093207;28;20642;-70
2022/10/04 13:11:40;;;;;;;4.60;1.25;;;;;;;22.59;42.21;97109.75;2092130;28;20240;-72
2022/10/04 13:13:07;;;;;;;4.85;1.40;;;;;;;21.68;43.43;97108.41;2093255;28;20204;-71
2022/10/04 13:14:46;;;;;;;2.60;1.08;;;;;;;20.74;43.50;97110.63;2094641;28;20208;-70
2022/10/04 13:16:07;;;;;;;4.40;1.30;;;;;;;21.17;44.04;97111.69;2101730;28;20744;-72
2022/10/04 13:18:18;;;;;;;3.80;1.33;;;;;;;21.25;44.23;97114.56;2095859;28;20223;-73
2022/10/04 13:19:51;;;;;;;4.90;1.58;;;;;;;20.85;44.89;97120.41;2073595;28;20280;-72
2022/10/04 13:21:02;;;;;;;5.45;1.23;;;;;;;21.00;45.05;97115.69;2094025;28;20227;-73
2022/10/04 13:22:16;;;;;;;2.35;1.00;;;;;;;22.37;42.21;97116.91;2093967;28;20314;-72
2022/10/04 13:23:56;;;;;;;5.88;1.40;;;;;;;21.85;42.45;97124.78;2093154;28;20328;-72
2022/10/04 13:25:20;;;;;;;1.88;0.82;;;;;;;21.63;42.91;97115.94;2093375;28;20269;-73
2022/10/04 13:26:24;;;;;;;3.47;1.30;;;;;;;21.58;43.17;97120.78;2089167;28;20314;-73
2022/10/04 13:28:05;;;;;;;4.25;1.08;;;;;;;23.22;39.88;97112.25;2093747;28;20231;-74
2022/10/04 13:29:29;;;;;;;6.05;1.45;;;;;;;24.01;39.43;97113.22;2092730;28;20296;-74
2022/10/04 13:30:48;;;;;;;3.45;1.17;;;;;;;23.62;39.02;97105.19;2090352;28;20688;-75
2022/10/04 13:32:06;;;;;;;4.88;1.73;;;;;;;23.64;40.21;97111.19;2092466;28;20256;-75
2022/10/04 13:33:38;;;;;;;3.03;0.98;;;;;;;23.54;40.04;97121.88;2092857;28;20283;-75
2022/10/04 13:34:48;;;;;;;1.42;0.80;;;;;;;24.38;38.76;97107.13;2090616;28;20234;-75
2022/10/04 13:35:56;;;;;;;3.40;1.13;;;;;;;23.80;38.54;97114.16;2097146;28;20298;-75
2022/10/04 13:37:17;;;;;;;1.60;1.00;;;;;;;23.96;37.64;97116.28;2079413;28;20247;-76
2022/10/04 13:38:52;;;;;;;3.20;1.13;;;;;;;24.28;37.79;97120.47;2094091;28;20227;-76
2022/10/04 13:40:14;;;;;;;6.90;1.20;;;;;;;23.05;39.11;97108.41;2092797;28;20732;-77
2022/10/04 13:41:36;;;;;;;3.50;1.30;;;;;;;23.36;39.22;97096.88;2083769;28;20234;-76
2022/10/04 13:43:04;;;;;;;2.20;1.00;;;;;;;24.03;39.02;97103.22;2083556;28;20712;-73
2022/10/04 13:44:35;;;;;;;2.83;0.90;;;;;;;24.20;37.54;97080.34;2091409;28;20227;-78
2022/10/04 13:46:15;;;;;;;3.65;1.10;;;;;;;23.90;39.21;97108.81;2090692;28;20177;-79
2022/10/04 13:56:36;;;;;;;3.65;1.10;;;;;;;23.03;39.11;97112.19;2091274;28;20659;-81
2022/10/04 13:58:27;;;;;;;3.03;1.10;;;;;;;22.80;39.42;97109.72;2082191;28;20240;-80
2022/10/04 13:59:38;;;;;;;1.70;1.10;;;;;;;22.00;38.68;97112.88;2089207;28;20242;-80
2022/10/04 14:00:50;;;;;;;2.55;1.10;;;;;;;22.33;38.30;97110.16;2092865;28;20661;-85
2022/10/04 14:01:52;;;;;;;2.28;0.93;;;;;;;22.18;39.40;97110.50;2091479;28;20315;-72
2022/10/04 14:02:56;;;;;;;3.70;1.02;;;;;;;22.04;38.60;97109.97;2093491;28;20298;-83
2022/10/04 14:04:34;;;;;;;3.08;1.15;;;;;;;22.33;39.29;97087.06;2092581;28;20287;-81
2022/10/04 14:06:08;;;;;;;2.53;0.90;;;;;;;23.32;38.79;97109.63;2093022;28;20219;-75
2022/10/04 14:07:36;;;;;;;3.70;1.00;;;;;;;23.47;37.59;97107.41;2089274;28;20236;-79
2022/10/04 14:09:32;;;;;;;2.85;1.02;;;;;;;23.46;36.62;97103.91;2094294;28;20204;-72
2022/10/04 14:10:52;;;;;;;1.88;0.80;;;;;;;23.37;36.97;97099.38;2075537;28;20735;-76
2022/10/04 14:11:59;;;;;;;4.53;1.10;;;;;;;22.38;38.38;97101.81;2064531;28;20264;-73
2022/10/04 14:13:39;;;;;;;2.20;1.20;;;;;;;22.06;38.54;97079.59;2073596;28;20205;-76
2022/10/04 14:15:15;;;;;;;2.10;0.98;;;;;;;21.51;39.41;97077.06;2074034;28;20236;-75
2022/10/04 14:16:50;;;;;;;2.22;1.00;;;;;;;22.59;38.11;97097.31;2075950;28;20251;-76
2022/10/04 14:18:42;;;;;;;4.20;1.08;;;;;;;22.67;38.43;97096.63;2077310;28;20204;-73
2022/10/04 14:20:03;;;;;;;1.58;0.88;;;;;;;22.77;37.65;97096.69;2070530;28;20785;-75
2022/10/04 14:21:11;;;;;;;5.47;1.02;;;;;;;22.79;39.52;97097.38;2073154;28;20233;-76
2022/10/04 14:22:30;;;;;;;1.88;1.00;;;;;;;23.52;38.71;97099.84;2068655;28;20732;-75
2022/10/04 14:24:14;;;;;;;1.77;1.30;;;;;;;23.34;38.79;97094.34;2067717;28;20202;-74
2022/10/04 14:25:26;;;;;;;1.88;0.98;;;;;;;22.56;41.16;97091.41;2064599;28;20229;-76
2022/10/04 14:27:02;;;;;;;3.95;1.35;;;;;;;21.58;41.49;97094.22;2066894;28;20230;-77
2022/10/04 14:28:25;;;;;;;1.45;0.80;;;;;;;22.71;41.89;97091.91;2079463;28;20288;-76
2022/10/04 14:29:39;;;;;;;3.40;1.33;;;;;;;23.00;39.98;97084.84;2075268;28;20251;-77
2022/10/04 14:31:18;;;;;;;9.25;1.60;;;;;;;23.72;38.69;97087.38;2067918;28;20254;-77
2022/10/04 14:32:50;;;;;;;3.65;1.23;;;;;;;22.99;39.67;97092.97;2074255;28;20562;-76
2022/10/04 14:34:25;;;;;;;3.75;1.40;;;;;;;22.81;40.02;97088.28;2073996;28;20333;-78
2022/10/04 14:35:41;;;;;;;3.40;0.80;;;;;;;22.35;40.82;97087.75;2080087;28;20238;-78
2022/10/04 14:37:07;;;;;;;2.08;0.90;;;;;;;22.52;40.93;97090.81;2096532;23;20250;-78
2022/10/04 14:38:42;;;;;;;2.63;1.27;;;;;;;22.03;41.57;97082.53;2057490;28;20209;-75
2022/10/04 14:40:06;;;;;;;3.20;1.33;;;;;;;21.74;42.54;97084.97;2059424;28;20742;-74
2022/10/04 14:41:26;;;;;;;1.83;1.00;;;;;;;22.45;41.74;97084.38;2056829;28;20214;-75
2022/10/04 14:42:37;;;;;;;3.30;1.30;;;;;;;21.21;43.16;97081.25;2060206;28;20234;-74
2022/10/04 14:44:11;;;;;;;8.68;1.40;;;;;;;21.62;42.64;97082.38;2051603;28;20204;-74
2022/10/04 14:45:25;;;;;;;2.65;1.25;;;;;;;22.43;41.72;97065.03;2055451;28;20229;-74
2022/10/04 14:47:02;;;;;;;3.22;1.17;;;;;;;22.10;43.06;97086.34;2060256;28;20676;-74
2022/10/04 14:48:19;;;;;;;1.58;1.08;;;;;;;21.89;42.46;97088.16;2051307;28;20221;-76
2022/10/04 14:49:41;;;;;;;5.68;1.15;;;;;;;21.35;43.00;97056.22;2054424;28;20727;-74
2022/10/04 14:50:49;;;;;;;2.67;1.10;;;;;;;21.21;42.71;97086.56;2061175;28;20534;-75
2022/10/04 14:52:38;;;;;;;2.60;1.02;;;;;;;22.22;41.35;97084.47;2050480;28;20226;-75
2022/10/04 14:53:59;;;;;;;5.10;1.10;;;;;;;22.20;42.65;97086.41;2051399;28;20254;-85
2022/10/04 14:55:29;;;;;;;10.55;1.10;;;;;;;21.57;43.38;97070.44;2040704;29;20228;-85
2022/10/04 14:57:13;;;;;;;3.35;1.38;;;;;;;21.92;43.49;97085.25;2048391;28;20230;-83
2022/10/04 14:58:33;;;;;;;4.25;1.25;;;;;;;21.21;44.47;97079.44;2059309;28;20207;-81
2022/10/04 15:00:00;;;;;;;3.13;1.10;;;;;;;21.72;44.25;97073.63;2061405;28;20210;-80
2022/10/04 15:01:16;;;;;;;4.22;1.10;;;;;;;21.69;43.00;97078.22;2058503;28;20199;-79
2022/10/04 15:02:21;;;;;;;3.50;1.17;;;;;;;22.39;42.19;97071.59;2058679;28;20724;-81
2022/10/04 15:03:54;;;;;;;2.95;0.90;;;;;;;21.99;43.15;97068.66;2059133;28;20245;-80
2022/10/04 15:05:27;;;;;;;4.65;1.10;;;;;;;21.99;43.23;97059.81;2059082;28;20207;-80
2022/10/04 15:06:50;;;;;;;2.25;1.10;;;;;;;21.44;45.01;97068.75;2041110;28;20243;-80
2022/10/04 17:10:20;;;;;;;11.25;2.42;;;;;;;15.86;70.37;97062.81;2082820;28;20576;-69
